Terminal Aerodrome Forecast
Issued by NWS Greer, SC

Home | Current Version | Previous Version | Text Only | Print | Product List | Glossary On
Versions: 1 2 3 4 5 6 7 8 9 10 11 12 13 14 15 16 17 18 19 20 21 22 23 24 25 26 27 28 29 30 31 32 33 34 35 36 37 38 39 40 41 42 43
000
FTUS42 KGSP 300736 AAB
TAFAVL
TAF AMD
KAVL 300736Z 3008/3106 00000KT 1SM BR OVC002
      TEMPO 3008/3012 1/4SM FG VV002
     FM301200 00000KT P6SM SCT010 SCT250
     FM301600 15006KT P6SM SCT017 BKN040
     FM302000 17007KT P6SM SCT060
     FM310100 00000KT P6SM SCT110=

USA.gov is the U.S. government's official web portal to all federal, state and local government web resources and services.